Weather at Kyneton Airport

Public forecast

Using degrees Celsius for public forecast. Weather courtesy of forecast.io.

Closest aviation weather report (METAR) to Kyneton Airport

Closest report is Melbourne International Airport, 32.8 nm (60.8 km) SE.

2022/12/06 13:00 (retrieved 16 minutes ago)

YMML 061300Z 02002KT CAVOK 13/10 Q1006

Closest aviation forecast (TAF) to Kyneton Airport

Closest forecast is Melbourne International Airport, 32.8 nm (60.8 km) SE.

2022/12/06 12:36 (retrieved 40 minutes ago)

TAF YMML 061125Z 0612/0718 29004KT CAVOK FM062100 22007KT CAVOK FM070300 21012KT 9999 -SHRA SCT030 FM070900 24015G25KT 9999 -SHRA SCT020 BKN035 FM071500 23012KT 9999 -SHRA SCT030